Time;durP1;ratioP1;P1;durP2;ratioP2;P2;SDS_P1;SDS_P2;PMS_P1;PMS_P2;Temp;Humidity;BMP_temperature;BMP_pressure;BME280_temperature;BME280_humidity;BME280_pressure;Samples;Min_cycle;Max_cycle;Signal;HPM_P1;HPM_P2
2022/08/27 00:00:49;;;;;;;25.60;14.65;;;22.50;99.90;;;;;;5031851;28;20045;-63
2022/08/27 00:03:15;;;;;;;21.15;12.55;;;22.60;99.90;;;;;;5035489;28;20018;-63
2022/08/27 00:05:41;;;;;;;20.60;12.90;;;22.60;99.90;;;;;;5053573;28;20478;-76
2022/08/27 00:08:11;;;;;;;21.27;12.95;;;22.50;99.90;;;;;;5047998;28;20075;-75
2022/08/27 00:10:37;;;;;;;21.52;13.63;;;22.50;99.90;;;;;;5031476;28;20037;-77
2022/08/27 00:13:04;;;;;;;17.85;12.35;;;22.50;99.90;;;;;;5031980;28;20052;-74
2022/08/27 00:15:31;;;;;;;17.58;12.07;;;22.60;99.90;;;;;;5031999;28;20073;-77
2022/08/27 00:17:56;;;;;;;22.85;13.35;;;22.70;99.90;;;;;;5044579;28;20517;-77
2022/08/27 00:20:24;;;;;;;20.80;11.90;;;22.70;99.90;;;;;;5053219;28;20032;-77
2022/08/27 00:22:51;;;;;;;20.73;12.13;;;22.70;99.90;;;;;;5046828;28;20349;-77
2022/08/27 00:25:18;;;;;;;23.05;13.55;;;22.60;99.90;;;;;;5032321;28;20037;-76
2022/08/27 00:27:45;;;;;;;24.67;14.38;;;22.60;99.90;;;;;;5032484;28;20079;-76
2022/08/27 00:30:15;;;;;;;22.77;14.30;;;22.40;99.90;;;;;;5040846;28;20086;-75
2022/08/27 00:32:41;;;;;;;23.88;12.82;;;22.40;99.90;;;;;;5044922;28;20032;-77
2022/08/27 00:35:08;;;;;;;18.33;12.43;;;22.70;99.90;;;;;;5052951;28;20013;-76
2022/08/27 00:37:34;;;;;;;23.83;12.60;;;22.50;99.90;;;;;;5052383;28;20544;-77
2022/08/27 00:40:00;;;;;;;22.40;14.07;;;22.30;99.90;;;;;;5052524;28;20106;-71
2022/08/27 00:42:26;;;;;;;19.27;12.73;;;22.40;99.90;;;;;;5052162;28;20076;-75
2022/08/27 00:44:52;;;;;;;21.13;11.98;;;22.50;99.90;;;;;;5052751;28;20020;-69
2022/08/27 00:47:23;;;;;;;27.73;12.55;;;22.40;99.90;;;;;;5049769;28;20024;-75
2022/08/27 00:50:03;;;;;;;22.83;12.85;;;22.40;99.90;;;;;;5041937;28;20044;-78
2022/08/27 00:52:40;;;;;;;23.05;14.02;;;22.40;99.90;;;;;;5052306;28;20368;-76
2022/08/27 00:55:19;;;;;;;17.50;11.50;;;22.20;99.90;;;;;;5051691;28;20482;-77
2022/08/27 00:58:09;;;;;;;23.80;14.15;;;22.50;99.90;;;;;;5052649;28;20574;-73
2022/08/27 01:00:36;;;;;;;23.58;14.15;;;22.20;99.90;;;;;;5050753;28;20129;-77
2022/08/27 01:03:03;;;;;;;28.73;14.05;;;22.20;99.90;;;;;;5049910;28;20051;-72
2022/08/27 01:05:30;;;;;;;21.88;12.77;;;22.20;99.90;;;;;;5050407;28;20040;-69
2022/08/27 01:08:06;;;;;;;23.30;13.00;;;22.20;99.90;;;;;;5052213;28;20021;-62
2022/08/27 01:10:32;;;;;;;24.10;13.88;;;22.20;99.90;;;;;;5031498;28;20415;-76
2022/08/27 01:12:59;;;;;;;21.27;13.60;;;22.20;99.90;;;;;;5045354;28;20021;-66
2022/08/27 01:15:26;;;;;;;20.17;14.23;;;;;;;;;;5052162;28;20033;-75
2022/08/27 01:17:53;;;;;;;24.80;14.45;;;22.20;99.90;;;;;;5051718;28;20048;-71
2022/08/27 01:20:34;;;;;;;23.90;13.10;;;23.00;99.90;;;;;;5043491;28;20025;-64
2022/08/27 01:23:22;;;;;;;24.75;13.52;;;22.20;99.90;;;;;;5031479;28;20079;-79
2022/08/27 01:25:49;;;;;;;20.70;12.75;;;22.20;99.90;;;;;;5051728;28;20028;-76
2022/08/27 01:28:16;;;;;;;19.88;12.32;;;22.10;99.90;;;;;;5051663;28;20025;-78
2022/08/27 01:30:44;;;;;;;21.15;12.40;;;;;;;;;;5051684;28;20491;-78
2022/08/27 01:33:13;;;;;;;24.83;12.38;;;;;;;;;;5051893;28;20059;-78
2022/08/27 01:35:41;;;;;;;23.25;12.65;;;21.70;99.90;;;;;;5051820;28;20071;-78
2022/08/27 01:38:08;;;;;;;17.65;11.27;;;21.90;99.90;;;;;;5051813;28;20021;-78
2022/08/27 01:40:33;;;;;;;28.67;14.02;;;21.90;99.90;;;;;;5051566;28;20033;-74
2022/08/27 01:43:00;;;;;;;24.30;12.90;;;21.90;99.90;;;;;;5051942;28;20082;-79
2022/08/27 01:45:29;;;;;;;20.83;13.38;;;21.90;99.90;;;;;;5051635;28;20353;-77
2022/08/27 01:47:56;;;;;;;20.95;13.38;;;21.80;99.90;;;;;;5051489;28;20051;-71
2022/08/27 01:50:25;;;;;;;24.45;14.18;;;21.80;99.90;;;;;;5051344;28;20509;-73
2022/08/27 01:52:53;;;;;;;26.30;13.80;;;21.80;99.90;;;;;;5065530;28;20281;-69
2022/08/27 01:55:22;;;;;;;28.63;13.85;;;21.70;99.90;;;;;;5051655;28;20035;-78
2022/08/27 01:57:48;;;;;;;26.55;14.07;;;21.70;99.90;;;;;;5051277;28;20029;-76
2022/08/27 02:00:27;;;;;;;23.02;14.88;;;21.70;99.90;;;;;;5037388;28;20064;-68
2022/08/27 02:02:54;;;;;;;27.48;15.38;;;21.70;99.90;;;;;;5051435;28;20021;-78
2022/08/27 02:05:21;;;;;;;23.17;15.25;;;21.70;99.90;;;;;;5050674;28;20067;-63
2022/08/27 02:07:47;;;;;;;20.58;14.75;;;21.70;99.90;;;;;;5055661;28;20029;-79
2022/08/27 02:10:16;;;;;;;20.83;14.15;;;;;;;;;;5055197;28;20029;-79
2022/08/27 02:12:42;;;;;;;23.60;14.18;;;21.70;99.90;;;;;;5055692;28;20032;-78
2022/08/27 02:15:08;;;;;;;27.23;14.38;;;21.70;99.90;;;;;;5056014;28;20048;-76
2022/08/27 02:17:34;;;;;;;24.45;16.08;;;21.60;99.90;;;;;;5038847;28;20029;-76
2022/08/27 02:20:00;;;;;;;26.58;15.23;;;21.70;99.90;;;;;;5034097;28;20026;-79
2022/08/27 02:22:27;;;;;;;23.80;15.90;;;21.60;99.90;;;;;;5034477;28;20036;-78
2022/08/27 02:24:52;;;;;;;23.75;16.48;;;21.60;99.90;;;;;;5053905;28;20029;-79
2022/08/27 02:27:19;;;;;;;26.75;14.95;;;21.70;99.90;;;;;;5054656;28;20032;-79
2022/08/27 02:29:46;;;;;;;19.70;12.88;;;21.70;99.90;;;;;;5054943;28;20163;-76
2022/08/27 02:32:13;;;;;;;27.60;14.60;;;21.60;99.90;;;;;;5053935;28;20476;-76
2022/08/27 02:34:39;;;;;;;20.58;14.00;;;21.50;99.90;;;;;;5055241;28;20024;-79
2022/08/27 02:37:06;;;;;;;31.00;15.50;;;21.50;99.90;;;;;;5055157;28;20033;-78
2022/08/27 02:39:33;;;;;;;24.67;15.15;;;21.40;99.90;;;;;;5055170;28;20025;-78
2022/08/27 02:41:59;;;;;;;27.48;17.08;;;21.40;99.90;;;;;;5054432;28;20049;-77
2022/08/27 02:44:25;;;;;;;19.30;13.95;;;21.40;99.90;;;;;;5054539;28;20021;-65
2022/08/27 02:46:51;;;;;;;25.60;14.23;;;21.40;99.90;;;;;;5053738;28;20029;-78
2022/08/27 02:49:17;;;;;;;24.00;13.60;;;21.40;99.90;;;;;;5054208;28;20017;-79
2022/08/27 02:51:43;;;;;;;23.55;14.25;;;21.40;99.90;;;;;;5054844;28;20045;-79
2022/08/27 02:54:09;;;;;;;23.85;14.18;;;21.30;99.90;;;;;;5055539;28;20032;-78
2022/08/27 02:56:35;;;;;;;23.25;14.60;;;21.30;99.90;;;;;;5054369;28;20028;-74
2022/08/27 02:59:01;;;;;;;20.42;13.10;;;21.30;99.90;;;;;;5056209;28;20123;-76
2022/08/27 03:01:27;;;;;;;24.88;14.43;;;21.30;99.90;;;;;;5053818;28;20112;-76
2022/08/27 03:03:53;;;;;;;22.85;16.50;;;21.30;99.90;;;;;;5052858;28;20060;-74
2022/08/27 03:06:19;;;;;;;23.58;15.05;;;21.30;99.90;;;;;;5037965;28;20026;-78
2022/08/27 03:08:44;;;;;;;24.90;15.07;;;21.30;99.90;;;;;;5033225;28;20035;-73
2022/08/27 03:11:11;;;;;;;25.20;14.73;;;21.20;99.90;;;;;;5037544;28;20116;-79
2022/08/27 03:13:38;;;;;;;24.65;15.93;;;21.20;99.90;;;;;;5033066;28;20040;-66
2022/08/27 03:16:05;;;;;;;27.20;16.33;;;21.20;99.90;;;;;;5033311;28;20025;-78
2022/08/27 03:18:32;;;;;;;23.50;15.93;;;21.20;99.90;;;;;;5031965;28;20017;-79
2022/08/27 03:21:00;;;;;;;24.05;17.00;;;21.30;99.90;;;;;;5032803;28;20025;-78
2022/08/27 03:23:31;;;;;;;23.75;15.90;;;21.10;99.90;;;;;;5035325;28;20028;-79
2022/08/27 03:25:59;;;;;;;28.98;17.60;;;21.20;99.90;;;;;;5032552;28;20282;-79
2022/08/27 03:28:29;;;;;;;25.50;16.65;;;21.20;99.90;;;;;;5038643;28;20051;-77
2022/08/27 03:31:00;;;;;;;26.30;16.13;;;21.20;99.90;;;;;;5033170;28;20124;-77
2022/08/27 03:33:34;;;;;;;27.42;17.10;;;21.10;99.90;;;;;;5048392;28;20442;-77
2022/08/27 03:36:00;;;;;;;30.10;17.20;;;21.10;99.90;;;;;;5053366;28;20021;-78
2022/08/27 03:38:26;;;;;;;26.15;17.77;;;21.20;99.90;;;;;;5053589;28;20028;-77
2022/08/27 03:40:52;;;;;;;24.52;15.35;;;21.20;99.90;;;;;;5053846;28;20411;-79
2022/08/27 03:43:20;;;;;;;20.23;15.27;;;21.20;99.90;;;;;;5053489;28;20028;-78
2022/08/27 03:45:48;;;;;;;28.35;15.30;;;21.30;99.90;;;;;;5053525;28;20392;-73
2022/08/27 03:48:14;;;;;;;23.10;14.65;;;21.30;99.90;;;;;;5054009;28;20024;-80
2022/08/27 03:50:43;;;;;;;22.63;15.32;;;21.30;99.90;;;;;;5053362;28;20048;-80
2022/08/27 03:53:10;;;;;;;26.95;15.73;;;21.30;99.90;;;;;;5053931;28;20036;-80
2022/08/27 03:55:36;;;;;;;24.58;15.00;;;21.20;99.90;;;;;;5053849;28;20029;-79
2022/08/27 03:58:02;;;;;;;23.33;14.93;;;21.20;99.90;;;;;;5053758;28;20025;-78
2022/08/27 04:00:28;;;;;;;29.27;15.13;;;21.20;99.90;;;;;;5052859;28;20049;-77
2022/08/27 04:02:54;;;;;;;23.63;15.63;;;21.30;99.90;;;;;;5053786;28;20036;-70
2022/08/27 04:05:21;;;;;;;24.75;16.23;;;21.20;99.90;;;;;;5053121;28;20078;-80
2022/08/27 04:07:47;;;;;;;29.27;17.92;;;21.20;99.90;;;;;;5053091;28;20067;-74
2022/08/27 04:10:15;;;;;;;30.77;16.08;;;21.20;99.90;;;;;;5053566;28;20045;-76
2022/08/27 04:12:40;;;;;;;24.45;17.77;;;21.30;99.90;;;;;;5053116;28;20021;-79
2022/08/27 04:15:08;;;;;;;22.80;14.68;;;21.40;99.90;;;;;;5053079;28;20541;-78
2022/08/27 04:17:34;;;;;;;21.05;14.82;;;21.40;99.90;;;;;;5052791;28;20021;-78
2022/08/27 04:20:01;;;;;;;28.75;15.18;;;21.50;99.90;;;;;;5052786;28;20476;-74
2022/08/27 04:22:27;;;;;;;26.08;14.90;;;21.60;99.90;;;;;;5052858;28;20017;-78
2022/08/27 04:24:53;;;;;;;27.02;15.10;;;21.70;99.90;;;;;;5052957;28;20070;-79
2022/08/27 04:27:20;;;;;;;22.55;15.40;;;21.90;99.90;;;;;;5052199;28;20100;-80
2022/08/27 04:29:46;;;;;;;23.42;14.00;;;22.10;99.90;;;;;;5052175;28;20033;-75
2022/08/27 04:32:12;;;;;;;27.38;13.88;;;22.30;99.90;;;;;;5052532;28;20036;-79
2022/08/27 04:34:39;;;;;;;20.33;13.77;;;22.70;99.90;;;;;;5052625;28;20033;-79
2022/08/27 04:37:05;;;;;;;27.80;14.98;;;22.70;99.90;;;;;;5052924;28;20028;-79
2022/08/27 04:39:32;;;;;;;22.67;15.63;;;23.00;99.90;;;;;;5052391;28;20033;-79
2022/08/27 04:41:59;;;;;;;23.45;13.77;;;23.30;99.90;;;;;;5044050;28;20903;-75
2022/08/27 04:48:16;;;;;;;26.02;14.35;;;23.50;99.90;;;;;;5287222;23;20045;-76
2022/08/27 04:50:46;;;;;;;21.70;14.50;;;23.80;99.90;;;;;;4990096;28;20455;-76
2022/08/27 04:53:14;;;;;;;27.90;14.27;;;24.00;99.90;;;;;;4995020;28;20468;-79
2022/08/27 04:55:41;;;;;;;24.45;13.35;;;24.40;99.90;;;;;;4990826;28;20081;-79
2022/08/27 04:58:08;;;;;;;21.15;12.32;;;24.60;99.90;;;;;;4989484;28;20472;-79
2022/08/27 05:00:39;;;;;;;29.60;13.98;;;25.10;99.90;;;;;;4990116;28;20026;-75
2022/08/27 05:03:05;;;;;;;25.58;12.75;;;25.40;99.90;;;;;;4992637;28;20551;-71
2022/08/27 05:05:31;;;;;;;24.05;13.38;;;25.60;99.90;;;;;;4992903;28;20026;-78
2022/08/27 05:07:57;;;;;;;24.10;12.90;;;25.80;99.90;;;;;;4992345;28;20026;-79
2022/08/27 05:10:23;;;;;;;27.80;13.10;;;26.10;99.90;;;;;;4991712;28;20038;-64
2022/08/27 05:12:49;;;;;;;26.80;13.48;;;;;;;;;;4994577;28;20018;-73
2022/08/27 05:15:15;;;;;;;28.27;14.45;;;26.70;99.90;;;;;;4992447;28;20022;-79
2022/08/27 05:17:42;;;;;;;24.33;13.98;;;25.50;99.90;;;;;;4992278;28;20062;-75
2022/08/27 05:20:09;;;;;;;25.55;13.35;;;25.10;99.90;;;;;;4989051;28;20022;-78
2022/08/27 05:22:35;;;;;;;25.63;14.13;;;24.80;99.90;;;;;;4991324;28;20453;-78
2022/08/27 05:25:01;;;;;;;23.63;14.45;;;24.60;99.90;;;;;;4990476;28;20042;-78
2022/08/27 05:27:27;;;;;;;23.98;14.23;;;24.40;99.90;;;;;;4992305;28;20049;-78
2022/08/27 05:29:53;;;;;;;25.50;14.02;;;24.40;99.90;;;;;;4991693;28;20125;-78
2022/08/27 05:32:19;;;;;;;22.83;13.57;;;24.40;99.90;;;;;;4992162;28;20668;-69
2022/08/27 05:34:45;;;;;;;21.00;14.15;;;24.50;99.90;;;;;;4991895;28;20062;-78
2022/08/27 05:37:10;;;;;;;26.48;14.95;;;24.40;99.90;;;;;;4991826;28;20053;-75
2022/08/27 05:39:36;;;;;;;24.77;14.10;;;24.50;99.90;;;;;;4991448;28;20023;-78
2022/08/27 05:42:02;;;;;;;26.63;14.02;;;24.50;99.90;;;;;;4986426;28;20688;-77
2022/08/27 05:44:28;;;;;;;25.05;14.40;;;24.70;99.90;;;;;;4988825;28;20023;-69
2022/08/27 05:46:53;;;;;;;26.73;14.23;;;24.70;99.90;;;;;;4994574;28;20143;-78
2022/08/27 05:49:20;;;;;;;25.90;13.30;;;24.90;99.90;;;;;;5011509;28;20045;-78
2022/08/27 05:51:46;;;;;;;25.38;13.80;;;24.70;99.90;;;;;;5011371;28;20046;-76
2022/08/27 05:54:18;;;;;;;25.05;14.13;;;24.60;99.90;;;;;;5011149;28;20022;-74
2022/08/27 05:56:44;;;;;;;;;;;24.50;99.90;;;;;;5011378;28;20116;-76
2022/08/27 06:01:57;;;;;;;28.27;15.18;;;24.60;99.90;;;;;;5021864;28;20053;-76
2022/08/27 06:04:24;;;;;;;22.40;15.75;;;24.60;99.90;;;;;;5012282;28;20041;-78
2022/08/27 06:06:50;;;;;;;21.23;14.15;;;24.70;99.90;;;;;;5011232;28;20057;-77
2022/08/27 06:09:22;;;;;;;24.75;14.63;;;25.00;99.90;;;;;;5010780;28;20042;-77
2022/08/27 06:11:48;;;;;;;23.23;14.15;;;25.10;99.90;;;;;;5010790;28;20485;-77
2022/08/27 06:14:14;;;;;;;27.25;14.77;;;25.40;99.90;;;;;;5011999;28;20026;-75
2022/08/27 06:16:40;;;;;;;25.35;15.07;;;;;;;;;;5010624;28;20465;-75
2022/08/27 06:19:07;;;;;;;25.50;15.02;;;25.60;99.90;;;;;;5010978;28;20026;-76
2022/08/27 06:21:33;;;;;;;23.08;14.20;;;26.00;99.90;;;;;;5011375;28;20077;-75
2022/08/27 06:24:00;;;;;;;23.15;13.07;;;25.80;99.90;;;;;;5010484;28;20037;-73
2022/08/27 06:26:26;;;;;;;23.77;13.10;;;25.90;99.90;;;;;;5010844;28;20038;-75
2022/08/27 06:28:52;;;;;;;21.58;12.93;;;25.80;99.90;;;;;;5011113;28;20073;-76
2022/08/27 06:31:25;;;;;;;24.02;13.02;;;25.90;99.90;;;;;;5011029;28;20113;-69
2022/08/27 06:33:52;;;;;;;24.02;13.25;;;26.00;99.90;;;;;;5010998;28;20036;-74
2022/08/27 06:36:23;;;;;;;24.83;13.18;;;26.30;99.90;;;;;;5011200;28;20026;-71
2022/08/27 06:38:49;;;;;;;24.40;13.73;;;26.30;99.90;;;;;;5015352;28;20038;-75
2022/08/27 06:41:18;;;;;;;24.63;12.50;;;;;;;;;;5009594;28;20026;-75
2022/08/27 06:43:44;;;;;;;23.13;13.30;;;26.60;99.90;;;;;;5007492;28;20180;-75
2022/08/27 06:46:13;;;;;;;27.65;13.05;;;26.80;99.90;;;;;;5009743;28;20036;-64
2022/08/27 06:48:40;;;;;;;28.00;13.40;;;26.90;99.90;;;;;;5010844;28;20064;-75
2022/08/27 06:51:08;;;;;;;25.52;13.55;;;26.80;99.90;;;;;;5009585;28;20045;-77
2022/08/27 06:53:35;;;;;;;26.65;14.27;;;27.10;99.90;;;;;;5012011;28;20029;-68
2022/08/27 06:56:01;;;;;;;23.33;12.88;;;;;;;;;;5013709;28;20113;-77
2022/08/27 06:58:27;;;;;;;24.02;12.02;;;;;;;;;;5014339;28;20030;-73
2022/08/27 07:00:53;;;;;;;20.52;12.52;;;27.40;99.90;;;;;;5014556;28;20033;-75
2022/08/27 07:03:19;;;;;;;21.85;11.93;;;27.40;99.90;;;;;;5013482;28;20025;-77
2022/08/27 07:05:45;;;;;;;27.13;13.00;;;27.70;99.90;;;;;;5013937;28;20018;-70
2022/08/27 07:08:11;;;;;;;25.48;12.40;;;27.80;99.90;;;;;;5012107;28;20396;-76
2022/08/27 07:10:36;;;;;;;23.98;10.88;;;28.00;99.90;;;;;;5014244;28;20027;-76
2022/08/27 07:13:03;;;;;;;20.83;10.52;;;28.20;99.90;;;;;;5013919;28;20029;-77
2022/08/27 07:15:29;;;;;;;20.10;11.15;;;28.20;99.90;;;;;;5013892;28;20188;-77
2022/08/27 07:17:55;;;;;;;21.17;11.65;;;28.20;99.90;;;;;;5013818;28;20080;-72
2022/08/27 07:20:21;;;;;;;21.85;11.27;;;;;;;;;;5014282;28;20084;-77
2022/08/27 07:22:48;;;;;;;20.40;10.88;;;;;;;;;;5018663;28;20438;-74
2022/08/27 07:25:19;;;;;;;27.50;8.77;;;28.60;99.90;;;;;;5016821;28;20091;-76
2022/08/27 07:27:46;;;;;;;22.95;9.98;;;;;;;;;;5014118;28;20030;-76
2022/08/27 07:30:14;;;;;;;20.65;11.05;;;;;;;;;;5014157;28;20472;-75
2022/08/27 07:32:42;;;;;;;19.55;9.70;;;28.80;99.90;;;;;;5013979;28;20481;-73
2022/08/27 07:35:08;;;;;;;22.83;9.30;;;;;;;;;;5019701;28;20049;-74
2022/08/27 07:37:39;;;;;;;21.88;9.60;;;29.00;99.90;;;;;;5013761;28;20120;-76
2022/08/27 07:40:11;;;;;;;18.90;10.88;;;29.20;99.90;;;;;;5014520;28;20066;-73
2022/08/27 07:45:21;;;;;;;22.67;10.05;;;29.30;99.90;;;;;;5013531;28;20065;-72
2022/08/27 07:47:49;;;;;;;22.58;10.15;;;;;;;;;;5013379;28;20120;-75
2022/08/27 07:50:15;;;;;;;22.83;10.45;;;29.50;99.90;;;;;;5012912;28;20037;-76
2022/08/27 07:52:44;;;;;;;19.42;9.30;;;;;;;;;;5013300;28;20100;-73
2022/08/27 07:55:13;;;;;;;19.33;10.50;;;30.00;99.90;;;;;;5007413;28;20080;-71
2022/08/27 07:57:40;;;;;;;24.75;9.93;;;29.90;99.90;;;;;;5007814;28;20025;-77
2022/08/27 08:00:14;;;;;;;20.75;10.57;;;29.90;99.90;;;;;;5012454;28;20021;-75
2022/08/27 08:02:45;;;;;;;26.92;10.45;;;29.90;99.90;;;;;;5013068;28;20045;-75
2022/08/27 08:05:14;;;;;;;32.10;10.00;;;30.00;99.90;;;;;;5013362;28;20025;-77
2022/08/27 08:07:40;;;;;;;20.38;8.75;;;30.30;99.90;;;;;;5012966;28;20435;-74
2022/08/27 08:10:08;;;;;;;16.85;8.77;;;30.40;99.90;;;;;;5011882;28;20030;-75
2022/08/27 08:12:35;;;;;;;23.58;9.93;;;30.50;98.80;;;;;;5010258;28;20033;-76
2022/08/27 08:15:03;;;;;;;19.27;10.77;;;30.60;99.90;;;;;;4995042;28;20068;-66
2022/08/27 08:17:31;;;;;;;24.65;11.07;;;;;;;;;;4994577;28;20478;-76
2022/08/27 08:19:57;;;;;;;22.30;9.98;;;30.70;99.90;;;;;;4995674;28;20923;-77
2022/08/27 08:22:23;;;;;;;26.98;10.77;;;30.90;99.90;;;;;;4996132;28;20018;-76
2022/08/27 08:24:49;;;;;;;18.90;9.90;;;30.60;99.90;;;;;;4992123;28;20105;-76
2022/08/27 08:27:15;;;;;;;16.65;8.45;;;30.80;99.90;;;;;;5000792;28;20072;-75
2022/08/27 08:29:41;;;;;;;20.48;9.63;;;30.80;99.90;;;;;;4994085;28;20027;-76
2022/08/27 08:32:07;;;;;;;17.08;9.43;;;31.00;99.30;;;;;;4998324;28;20117;-76
2022/08/27 08:34:34;;;;;;;18.17;8.30;;;31.20;98.80;;;;;;5012528;28;20117;-76
2022/08/27 08:37:00;;;;;;;17.67;8.80;;;31.10;96.80;;;;;;5012911;28;20033;-76
2022/08/27 08:39:26;;;;;;;21.50;10.13;;;31.20;99.90;;;;;;5012262;28;20026;-74
2022/08/27 08:41:58;;;;;;;23.77;8.93;;;31.10;99.30;;;;;;5013763;28;20035;-76
2022/08/27 08:44:30;;;;;;;14.82;7.60;;;31.00;98.20;;;;;;5012767;28;20048;-75
2022/08/27 08:47:09;;;;;;;22.95;8.45;;;31.20;94.20;;;;;;5012347;28;20026;-69
2022/08/27 08:50:04;;;;;;;23.40;8.63;;;31.40;99.90;;;;;;5002676;28;20038;-76
2022/08/27 08:53:06;;;;;;;22.08;9.00;;;31.70;97.60;;;;;;5011211;28;20069;-77
2022/08/27 08:55:52;;;;;;;18.85;8.07;;;31.50;96.30;;;;;;5012605;28;20026;-76
2022/08/27 08:58:42;;;;;;;17.60;8.45;;;31.90;92.30;;;;;;5020301;28;20064;-75
2022/08/27 09:01:10;;;;;;;15.57;7.68;;;31.90;92.50;;;;;;5013034;28;20017;-76
2022/08/27 09:03:41;;;;;;;16.60;8.20;;;31.90;99.90;;;;;;5010093;28;20100;-75
2022/08/27 09:06:27;;;;;;;16.85;7.88;;;31.90;92.90;;;;;;5011711;28;20029;-75
2022/08/27 09:08:54;;;;;;;19.15;8.25;;;32.10;94.40;;;;;;5011174;28;20037;-71
2022/08/27 09:11:41;;;;;;;13.45;8.70;;;32.00;93.60;;;;;;5010682;28;20126;-77
2022/08/27 09:14:29;;;;;;;19.60;8.75;;;31.90;96.50;;;;;;5010039;28;20105;-76
2022/08/27 09:17:02;;;;;;;16.60;8.52;;;32.00;92.30;;;;;;5006534;28;20025;-75
2022/08/27 09:19:28;;;;;;;16.60;8.55;;;31.90;94.10;;;;;;4990641;28;20040;-76
2022/08/27 09:22:12;;;;;;;21.50;8.70;;;31.60;97.40;;;;;;4990902;28;20113;-75
2022/08/27 09:24:58;;;;;;;25.73;9.30;;;31.70;98.10;;;;;;4990769;28;20027;-76
2022/08/27 09:27:24;;;;;;;24.10;9.43;;;31.90;96.50;;;;;;4992892;28;20049;-73
2022/08/27 09:29:53;;;;;;;16.95;9.27;;;31.70;93.70;;;;;;4991100;28;20018;-78
2022/08/27 09:32:27;;;;;;;18.55;9.02;;;31.90;95.60;;;;;;4991227;28;20035;-75
2022/08/27 09:34:58;;;;;;;21.48;9.25;;;31.90;97.40;;;;;;4991622;28;20030;-78
2022/08/27 09:37:26;;;;;;;;;;;32.00;96.60;;;;;;4991227;28;20057;-79
2022/08/27 09:40:05;;;;;;;27.00;8.65;;;32.10;98.80;;;;;;4993352;28;19997;-79
2022/08/27 09:42:39;;;;;;;15.23;8.55;;;;;;;;;;4990964;28;20022;-78
2022/08/27 09:45:17;;;;;;;16.65;9.05;;;32.40;97.60;;;;;;4994868;28;20022;-77
2022/08/27 09:47:53;;;;;;;14.60;8.13;;;32.20;97.50;;;;;;4991464;28;20508;-71
2022/08/27 09:50:22;;;;;;;16.10;9.48;;;32.40;98.00;;;;;;4991485;28;20041;-76
2022/08/27 09:52:57;;;;;;;19.15;8.48;;;;;;;;;;4993641;28;20496;-75
2022/08/27 09:55:29;;;;;;;15.50;8.05;;;32.80;99.90;;;;;;4992271;28;20030;-76
2022/08/27 09:57:56;;;;;;;17.85;9.50;;;;;;;;;;4998009;28;20026;-75
2022/08/27 10:00:36;;;;;;;18.10;8.40;;;34.60;98.20;;;;;;5011077;28;20029;-76
2022/08/27 10:03:02;;;;;;;20.75;8.50;;;;;;;;;;5005361;28;20044;-69
2022/08/27 10:05:34;;;;;;;21.38;9.13;;;32.90;99.90;;;;;;5011144;28;20030;-75
2022/08/27 10:08:06;;;;;;;21.42;8.52;;;33.10;96.70;;;;;;5011716;28;20030;-76
2022/08/27 10:10:56;;;;;;;16.67;7.90;;;32.90;99.90;;;;;;5017596;28;20411;-76
2022/08/27 10:13:27;;;;;;;28.40;8.82;;;32.80;99.90;;;;;;5014735;28;20034;-65
2022/08/27 10:15:53;;;;;;;;;;;32.50;99.90;;;;;;5012114;28;20492;-76
2022/08/27 10:18:23;;;;;;;17.55;9.00;;;;;;;;;;5011049;28;19910;-75
2022/08/27 10:21:16;;;;;;;22.08;8.73;;;32.30;99.90;;;;;;5011528;28;20496;-75
2022/08/27 10:24:01;;;;;;;18.77;8.38;;;32.40;99.90;;;;;;5010512;28;20527;-74
2022/08/27 10:26:39;;;;;;;15.00;7.80;;;32.60;99.90;;;;;;5011918;28;20780;-76
2022/08/27 10:29:43;;;;;;;15.43;8.30;;;32.60;99.90;;;;;;5014629;28;20034;-75
2022/08/27 10:32:30;;;;;;;25.88;8.02;;;32.60;99.90;;;;;;5015098;28;20038;-76
2022/08/27 10:35:25;;;;;;;15.77;8.27;;;33.00;99.90;;;;;;5015452;28;20495;-75
2022/08/27 10:38:19;;;;;;;15.75;8.85;;;32.90;99.90;;;;;;5014385;28;20273;-73
2022/08/27 10:40:44;;;;;;;21.33;7.85;;;33.40;99.90;;;;;;5014786;28;20032;-75
2022/08/27 10:43:48;;;;;;;16.52;8.50;;;;;;;;;;5014134;28;20109;-76
2022/08/27 10:46:14;;;;;;;17.42;7.57;;;;;;;;;;4973393;28;20038;-75
2022/08/27 10:48:45;;;;;;;15.57;7.55;;;;;;;;;;4957365;28;20055;-76
2022/08/27 10:51:17;;;;;;;19.85;7.90;;;;;;;;;;4973238;28;20043;-75
2022/08/27 10:54:11;;;;;;;14.27;8.27;;;33.70;99.90;;;;;;4973225;28;20038;-76
2022/08/27 10:56:47;;;;;;;16.58;6.85;;;;;;;;;;4973052;28;20101;-76
2022/08/27 10:59:32;;;;;;;13.60;8.00;;;;;;;;;;4973259;28;20030;-76
2022/08/27 11:02:04;;;;;;;15.23;7.20;;;33.80;99.90;;;;;;4960189;28;20039;-74
2022/08/27 11:04:32;;;;;;;16.20;8.70;;;;;;;;;;4972423;28;20113;-72
2022/08/27 11:07:19;;;;;;;22.20;8.57;;;33.80;99.90;;;;;;4972665;28;20174;-64
2022/08/27 11:09:58;;;;;;;13.07;7.72;;;33.40;99.90;;;;;;4972781;28;20023;-76
2022/08/27 11:12:35;;;;;;;16.00;7.97;;;33.30;99.90;;;;;;4973007;28;20037;-76
2022/08/27 11:15:07;;;;;;;22.15;8.35;;;33.40;99.90;;;;;;4972008;28;20046;-76
2022/08/27 11:17:42;;;;;;;17.65;7.57;;;33.50;99.90;;;;;;4972631;28;20078;-75
2022/08/27 11:20:19;;;;;;;16.60;7.88;;;33.60;99.90;;;;;;4992057;28;20130;-63
2022/08/27 11:23:23;;;;;;;20.60;7.18;;;33.50;99.90;;;;;;5013450;28;20687;-74
2022/08/27 11:26:02;;;;;;;19.17;7.07;;;33.30;96.50;;;;;;4972600;28;20125;-76
2022/08/27 11:28:37;;;;;;;14.77;7.95;;;33.40;99.90;;;;;;4972618;28;20049;-76
2022/08/27 11:31:16;;;;;;;12.13;7.20;;;33.20;99.30;;;;;;4972408;28;20043;-75
2022/08/27 11:33:53;;;;;;;16.05;6.95;;;33.20;95.80;;;;;;4972649;28;20126;-75
2022/08/27 11:36:36;;;;;;;12.85;6.95;;;33.20;94.40;;;;;;4972190;28;20481;-74
2022/08/27 11:39:05;;;;;;;17.02;7.38;;;33.30;99.50;;;;;;4971129;28;20170;-73
2022/08/27 11:41:53;;;;;;;15.45;6.70;;;33.40;99.90;;;;;;4972368;28;20030;-75
2022/08/27 11:44:22;;;;;;;12.60;6.60;;;33.40;93.40;;;;;;4972323;28;20089;-76
2022/08/27 11:47:08;;;;;;;21.55;6.93;;;33.60;99.30;;;;;;4972361;28;20049;-76
2022/08/27 11:49:50;;;;;;;9.65;5.55;;;33.30;96.80;;;;;;4971622;28;20042;-75
2022/08/27 11:52:38;;;;;;;12.25;4.22;;;33.50;99.90;;;;;;4972550;28;20513;-76
2022/08/27 11:55:23;;;;;;;15.70;4.80;;;33.40;99.90;;;;;;4972632;28;20113;-76
2022/08/27 11:58:03;;;;;;;25.45;6.43;;;33.70;99.90;;;;;;4971535;28;20034;-74
2022/08/27 12:00:32;;;;;;;12.02;5.32;;;33.80;99.90;;;;;;4991805;28;20034;-64
2022/08/27 12:03:01;;;;;;;11.93;5.15;;;33.50;99.90;;;;;;4995621;28;20037;-76
2022/08/27 12:05:43;;;;;;;15.95;5.03;;;33.30;99.90;;;;;;5000454;28;20570;-76
2022/08/27 12:08:20;;;;;;;9.00;5.15;;;33.20;99.90;;;;;;5013374;28;20037;-74
2022/08/27 12:11:05;;;;;;;13.90;5.65;;;33.20;99.90;;;;;;5013185;28;20404;-76
2022/08/27 12:13:41;;;;;;;10.30;4.90;;;33.10;99.90;;;;;;5013199;28;20032;-75
2022/08/27 12:16:11;;;;;;;8.73;4.03;;;33.10;99.90;;;;;;5013054;28;20034;-74
2022/08/27 12:18:45;;;;;;;11.17;5.10;;;33.10;99.90;;;;;;5013360;28;20088;-76
2022/08/27 12:21:20;;;;;;;11.65;4.30;;;33.10;99.90;;;;;;5013137;28;20042;-76
2022/08/27 12:24:29;;;;;;;15.07;4.40;;;33.20;99.90;;;;;;5013456;28;20472;-76
2022/08/27 12:27:01;;;;;;;12.75;4.88;;;33.40;99.90;;;;;;4971164;28;20549;-76
2022/08/27 12:29:50;;;;;;;12.63;4.50;;;33.40;99.90;;;;;;4971523;28;20034;-74
2022/08/27 12:32:18;;;;;;;9.25;3.40;;;33.40;99.90;;;;;;4971140;28;20526;-75
2022/08/27 12:34:51;;;;;;;13.13;4.60;;;33.60;99.90;;;;;;4971487;28;20038;-74
2022/08/27 12:37:24;;;;;;;7.25;3.58;;;33.60;99.90;;;;;;4946323;28;20046;-75
2022/08/27 12:39:55;;;;;;;11.00;3.58;;;33.40;99.90;;;;;;4968033;28;20035;-72
2022/08/27 12:42:21;;;;;;;16.02;3.83;;;33.40;99.90;;;;;;4970714;28;20043;-72
2022/08/27 12:44:53;;;;;;;8.73;4.25;;;33.50;99.90;;;;;;4970135;28;20045;-75
2022/08/27 12:47:20;;;;;;;11.45;3.85;;;33.60;99.90;;;;;;4970691;28;20574;-71
2022/08/27 12:49:53;;;;;;;25.27;4.70;;;33.50;99.90;;;;;;4970391;28;20035;-75
2022/08/27 12:53:00;;;;;;;11.73;4.60;;;33.60;99.90;;;;;;4970997;28;20043;-75
2022/08/27 12:55:39;;;;;;;26.73;6.47;;;33.70;99.90;;;;;;4971234;28;20467;-74
2022/08/27 12:58:37;;;;;;;11.55;4.18;;;33.50;99.90;;;;;;4971049;28;20035;-75
2022/08/27 13:01:06;;;;;;;11.77;4.57;;;33.50;99.90;;;;;;4950618;29;20090;-75
2022/08/27 13:03:37;;;;;;;22.55;5.55;;;33.60;99.90;;;;;;4968967;28;20035;-74
2022/08/27 13:06:17;;;;;;;13.68;4.78;;;33.60;99.90;;;;;;4971318;28;20122;-74
2022/08/27 13:08:44;;;;;;;29.58;8.25;;;33.60;93.40;;;;;;4958757;28;20054;-74